Terminal Aerodrome Forecast
Issued by NWS

Home | Current Version | Previous Version | Text Only | Print | Product List | Glossary On
Versions: 1 2 3 4 5 6 7 8 9 10 11 12 13 14 15 16 17
000
FTUS43 KBIS 232300
TAFJMS
TAF
KJMS 232320Z 2400/2424 13018G25KT P6SM VCSH BKN015
     FM240100 13014KT P6SM OVC020
     FM241000 18007KT P6SM BKN080
     FM241600 30012KT P6SM SKC=

USA.gov is the U.S. government's official web portal to all federal, state and local government web resources and services.